createdAt,value
2016-12-26T00:00:53.417Z,10.8
2016-12-26T00:01:59.421Z,10.8
2016-12-26T00:03:05.446Z,10.8
2016-12-26T00:04:11.473Z,10.8
2016-12-26T00:05:17.511Z,10.8
2016-12-26T00:06:23.524Z,10.8
2016-12-26T00:07:29.546Z,10.8
2016-12-26T00:08:35.576Z,10.8
2016-12-26T00:09:41.588Z,10.8
2016-12-26T00:10:47.611Z,10.8
2016-12-26T00:11:53.635Z,10.8
2016-12-26T00:12:59.661Z,10.8
2016-12-26T00:14:05.687Z,10.8
2016-12-26T00:15:11.713Z,10.8
2016-12-26T00:16:17.736Z,10.8
2016-12-26T00:17:23.752Z,10.8
2016-12-26T00:18:29.780Z,10.8
2016-12-26T00:19:35.798Z,10.9
2016-12-26T00:20:41.819Z,10.8
2016-12-26T00:21:47.836Z,10.8
2016-12-26T00:22:53.850Z,10.8
2016-12-26T00:23:59.880Z,10.8
2016-12-26T00:25:05.908Z,10.8
2016-12-26T00:26:11.929Z,10.8
2016-12-26T00:27:17.951Z,10.8
2016-12-26T00:28:23.977Z,10.8
2016-12-26T00:29:29.990Z,10.8
2016-12-26T00:30:36.020Z,10.8
2016-12-26T00:31:42.045Z,10.8
2016-12-26T00:32:48.062Z,10.8
2016-12-26T00:33:54.089Z,10.8
2016-12-26T00:35:00.121Z,10.9
2016-12-26T00:36:06.140Z,10.9
2016-12-26T00:37:12.160Z,10.8
2016-12-26T00:38:18.194Z,10.8
2016-12-26T00:39:24.204Z,10.9
2016-12-26T00:40:30.229Z,10.9
2016-12-26T00:41:36.254Z,10.9
2016-12-26T00:42:42.278Z,10.9
2016-12-26T00:43:48.301Z,10.9
2016-12-26T00:44:54.328Z,10.8
2016-12-26T00:46:00.352Z,10.8
2016-12-26T00:47:06.392Z,10.9
2016-12-26T00:48:12.406Z,10.8
2016-12-26T00:49:18.427Z,10.8
2016-12-26T00:50:24.449Z,10.8
2016-12-26T00:51:30.475Z,10.8
2016-12-26T00:52:36.497Z,10.7
2016-12-26T00:53:42.520Z,10.8
2016-12-26T00:54:48.537Z,10.8
2016-12-26T00:55:54.565Z,10.8
2016-12-26T00:57:00.585Z,10.9
2016-12-26T00:58:06.602Z,10.8
2016-12-26T00:59:12.619Z,10.8
2016-12-26T01:00:18.645Z,10.8
2016-12-26T01:01:24.672Z,10.8
2016-12-26T01:02:30.700Z,10.8
2016-12-26T01:03:36.724Z,10.8
2016-12-26T01:04:42.748Z,10.8
2016-12-26T01:05:48.780Z,10.8
2016-12-26T01:06:54.806Z,10.8
2016-12-26T01:08:00.824Z,10.8
2016-12-26T01:09:06.840Z,10.9
2016-12-26T01:10:12.862Z,10.9
2016-12-26T01:11:18.887Z,10.9
2016-12-26T01:12:24.912Z,10.9
2016-12-26T01:13:30.934Z,10.9
2016-12-26T01:14:36.955Z,10.8
2016-12-26T01:15:42.978Z,10.9
2016-12-26T01:16:48.995Z,10.8
2016-12-26T01:17:55.013Z,10.8
2016-12-26T01:19:01.043Z,10.8
2016-12-26T01:20:07.071Z,10.8
2016-12-26T01:21:13.095Z,10.9
2016-12-26T01:22:19.113Z,10.8
2016-12-26T01:23:25.139Z,10.8
2016-12-26T01:24:31.162Z,10.8
2016-12-26T01:25:37.188Z,10.8
2016-12-26T01:26:43.214Z,10.8
2016-12-26T01:27:49.246Z,10.9
2016-12-26T01:28:55.264Z,10.8
2016-12-26T01:30:01.287Z,10.8
2016-12-26T01:31:07.309Z,10.9
2016-12-26T01:32:13.330Z,10.9
2016-12-26T01:33:19.347Z,10.8
2016-12-26T01:34:25.371Z,10.9
2016-12-26T01:35:31.392Z,10.9
2016-12-26T01:36:37.420Z,10.9
2016-12-26T01:37:43.437Z,10.8
2016-12-26T01:38:49.458Z,10.9
2016-12-26T01:39:55.481Z,10.9
2016-12-26T01:41:01.513Z,10.9
2016-12-26T01:42:07.532Z,10.9
2016-12-26T01:43:13.555Z,10.9
2016-12-26T01:44:19.578Z,11
2016-12-26T01:45:25.597Z,11
2016-12-26T01:46:31.618Z,10.9
2016-12-26T01:47:37.646Z,10.9
2016-12-26T01:48:43.666Z,10.9
2016-12-26T01:49:49.689Z,10.9
2016-12-26T01:50:55.703Z,10.8
2016-12-26T01:52:01.735Z,10.9
2016-12-26T01:53:07.757Z,10.9
2016-12-26T01:54:13.775Z,11
2016-12-26T01:55:19.804Z,10.9
2016-12-26T01:56:25.830Z,10.9
2016-12-26T01:57:31.847Z,10.9
2016-12-26T01:58:37.865Z,10.9
2016-12-26T01:59:43.886Z,10.9
2016-12-26T02:00:49.908Z,10.9
2016-12-26T02:01:55.930Z,10.9
2016-12-26T02:03:01.953Z,10.9
2016-12-26T02:04:07.970Z,11
2016-12-26T02:05:13.989Z,10.9
2016-12-26T02:06:20.015Z,10.9
2016-12-26T02:07:26.034Z,10.9
2016-12-26T02:08:32.053Z,10.9
2016-12-26T02:09:38.072Z,11
2016-12-26T02:10:44.095Z,11
2016-12-26T02:11:50.112Z,11
2016-12-26T02:12:56.138Z,10.9
2016-12-26T02:14:02.166Z,11
2016-12-26T02:15:08.193Z,11
2016-12-26T02:16:14.209Z,11
2016-12-26T02:17:20.234Z,11
2016-12-26T02:18:26.257Z,11
2016-12-26T02:19:32.280Z,11
2016-12-26T02:20:38.295Z,11
2016-12-26T02:21:44.321Z,10.9
2016-12-26T02:22:50.346Z,11
2016-12-26T02:23:56.370Z,11
2016-12-26T02:25:02.391Z,11
2016-12-26T02:26:08.408Z,10.9
2016-12-26T02:27:14.431Z,10.9
2016-12-26T02:28:20.455Z,10.9
2016-12-26T02:29:26.481Z,10.9
2016-12-26T02:30:32.503Z,10.9
2016-12-26T02:31:38.524Z,10.9
2016-12-26T02:32:44.547Z,10.9
2016-12-26T02:33:50.573Z,10.9
2016-12-26T02:34:55.856Z,10.8
2016-12-26T02:36:01.883Z,10.8
2016-12-26T02:37:07.906Z,10.9
2016-12-26T02:38:13.920Z,10.9
2016-12-26T02:39:19.944Z,10.9
2016-12-26T02:40:25.972Z,10.9
2016-12-26T02:41:31.994Z,10.9
2016-12-26T02:42:38.016Z,10.9
2016-12-26T02:43:44.042Z,10.8
2016-12-26T02:44:50.070Z,10.9
2016-12-26T02:45:56.089Z,10.9
2016-12-26T02:47:02.113Z,10.9
2016-12-26T02:48:08.138Z,10.8
2016-12-26T02:49:14.151Z,10.9
2016-12-26T02:50:20.166Z,10.9
2016-12-26T02:51:26.189Z,10.9
2016-12-26T02:52:32.216Z,10.8
2016-12-26T02:53:38.244Z,10.8
2016-12-26T02:54:44.269Z,10.9
2016-12-26T02:55:50.291Z,10.9
2016-12-26T02:56:56.314Z,10.8
2016-12-26T02:58:02.339Z,10.9
2016-12-26T02:59:08.358Z,10.9
2016-12-26T03:00:14.377Z,10.9
2016-12-26T03:01:20.395Z,10.9
2016-12-26T03:02:26.422Z,10.8
2016-12-26T03:03:32.443Z,10.8
2016-12-26T03:04:38.465Z,10.8
2016-12-26T03:05:44.497Z,10.8
2016-12-26T03:06:50.525Z,10.9
2016-12-26T03:07:56.544Z,10.8
2016-12-26T03:09:02.568Z,10.9
2016-12-26T03:10:08.594Z,10.9
2016-12-26T03:11:14.617Z,10.8
2016-12-26T03:12:20.644Z,10.9
2016-12-26T03:13:26.667Z,10.8
2016-12-26T03:14:32.687Z,10.9
2016-12-26T03:15:38.717Z,10.8
2016-12-26T03:16:44.739Z,10.8
2016-12-26T03:17:50.753Z,10.8
2016-12-26T03:18:56.771Z,10.7
2016-12-26T03:20:02.798Z,10.8
2016-12-26T03:21:08.817Z,10.7
2016-12-26T03:22:14.837Z,10.7
2016-12-26T03:23:20.865Z,10.8
2016-12-26T03:24:26.891Z,10.8
2016-12-26T03:25:32.912Z,10.9
2016-12-26T03:26:38.932Z,10.8
2016-12-26T03:27:44.965Z,10.7
2016-12-26T03:28:50.979Z,10.8
2016-12-26T03:29:56.998Z,10.8
2016-12-26T03:31:03.016Z,10.8
2016-12-26T03:32:09.042Z,10.8
2016-12-26T03:33:15.066Z,10.7
2016-12-26T03:34:21.089Z,10.8
2016-12-26T03:35:27.108Z,10.8
2016-12-26T03:36:33.127Z,10.8
2016-12-26T03:37:39.147Z,10.7
2016-12-26T03:38:45.179Z,10.7
2016-12-26T03:39:51.200Z,10.7
2016-12-26T03:40:57.222Z,10.7
2016-12-26T03:42:03.242Z,10.8
2016-12-26T03:43:09.270Z,10.8
2016-12-26T03:44:15.284Z,10.7
2016-12-26T03:45:21.312Z,10.8
2016-12-26T03:46:27.337Z,10.8
2016-12-26T03:47:33.357Z,10.8
2016-12-26T03:48:39.371Z,10.8
2016-12-26T03:49:45.393Z,10.8
2016-12-26T03:50:51.420Z,10.8
2016-12-26T03:51:57.434Z,10.8
2016-12-26T03:53:03.467Z,10.7
2016-12-26T03:54:09.494Z,10.7
2016-12-26T03:55:15.516Z,10.7
2016-12-26T03:56:21.532Z,10.8
2016-12-26T03:57:27.558Z,10.7
2016-12-26T03:58:33.584Z,10.7
2016-12-26T03:59:39.609Z,10.7
2016-12-26T04:00:45.631Z,10.7
2016-12-26T04:01:51.656Z,10.7
2016-12-26T04:02:57.683Z,10.8
2016-12-26T04:04:03.713Z,10.8
2016-12-26T04:05:09.732Z,10.8
2016-12-26T04:06:15.754Z,10.8
2016-12-26T04:07:21.780Z,10.7
2016-12-26T04:08:27.800Z,10.8
2016-12-26T04:09:33.817Z,10.8
2016-12-26T04:10:39.845Z,10.8
2016-12-26T04:11:45.868Z,10.8
2016-12-26T04:12:51.890Z,10.8
2016-12-26T04:13:57.911Z,10.8
2016-12-26T04:15:03.939Z,10.8
2016-12-26T04:16:09.960Z,10.8
2016-12-26T04:17:15.981Z,10.8
2016-12-26T04:18:22.001Z,10.8
2016-12-26T04:19:28.026Z,10.8
2016-12-26T04:20:34.053Z,10.8
2016-12-26T04:21:40.073Z,10.8
2016-12-26T04:22:46.104Z,10.8
2016-12-26T04:23:52.133Z,10.9
2016-12-26T04:24:58.154Z,10.8
2016-12-26T04:26:04.182Z,10.8
2016-12-26T04:27:10.208Z,10.8
2016-12-26T04:28:16.232Z,10.8
2016-12-26T04:29:22.252Z,10.8
2016-12-26T04:30:28.273Z,10.8
2016-12-26T04:31:34.293Z,10.8
2016-12-26T04:32:40.311Z,10.8
2016-12-26T04:33:46.334Z,10.8
2016-12-26T04:34:52.360Z,10.9
2016-12-26T04:35:58.384Z,10.8
2016-12-26T04:37:04.403Z,10.8
2016-12-26T04:38:10.428Z,10.8
2016-12-26T04:39:16.457Z,10.9
2016-12-26T04:40:22.472Z,10.9
2016-12-26T04:41:28.490Z,10.9
2016-12-26T04:42:34.514Z,10.8
2016-12-26T04:43:40.541Z,10.8
2016-12-26T04:44:46.564Z,10.8
2016-12-26T04:45:52.583Z,10.8
2016-12-26T04:46:58.604Z,10.8
2016-12-26T04:48:04.624Z,10.8
2016-12-26T04:49:10.654Z,10.8
2016-12-26T04:50:16.674Z,10.9
2016-12-26T04:51:22.701Z,10.8
2016-12-26T04:52:28.727Z,10.9
2016-12-26T04:53:34.751Z,10.9
2016-12-26T04:54:40.769Z,10.9
2016-12-26T04:55:46.794Z,10.9
2016-12-26T04:56:52.821Z,10.8
2016-12-26T04:57:58.842Z,10.8
2016-12-26T04:59:04.852Z,10.8
2016-12-26T05:00:10.879Z,10.8
2016-12-26T05:01:16.906Z,10.8
2016-12-26T05:02:22.921Z,10.9
2016-12-26T05:03:28.948Z,10.9
2016-12-26T05:04:34.975Z,10.9
2016-12-26T05:05:41.001Z,10.9
2016-12-26T05:06:47.016Z,10.9
2016-12-26T05:07:53.038Z,10.8
2016-12-26T05:08:59.062Z,10.8
2016-12-26T05:10:05.086Z,10.8
2016-12-26T05:11:11.111Z,10.9
2016-12-26T05:12:17.133Z,10.9
2016-12-26T05:13:23.158Z,10.9
2016-12-26T05:14:29.174Z,10.9
2016-12-26T05:15:35.196Z,10.8
2016-12-26T05:16:41.225Z,10.9
2016-12-26T05:17:47.256Z,10.9
2016-12-26T05:18:53.273Z,10.9
2016-12-26T05:19:59.296Z,10.9
2016-12-26T05:21:05.322Z,10.9
2016-12-26T05:22:11.350Z,10.9
2016-12-26T05:23:17.365Z,10.9
2016-12-26T05:24:23.391Z,10.9
2016-12-26T05:25:29.416Z,10.9
2016-12-26T05:26:35.430Z,10.9
2016-12-26T05:27:41.452Z,10.9
2016-12-26T05:28:47.474Z,10.8
2016-12-26T05:29:53.502Z,10.8
2016-12-26T05:30:59.527Z,10.9
2016-12-26T05:32:05.552Z,10.8
2016-12-26T05:33:11.570Z,10.9
2016-12-26T05:34:17.589Z,10.8
2016-12-26T05:35:23.616Z,10.8
2016-12-26T05:36:29.645Z,10.8
2016-12-26T05:37:35.670Z,10.8
2016-12-26T05:38:41.689Z,10.8
2016-12-26T05:39:47.704Z,10.8
2016-12-26T05:40:53.730Z,10.8
2016-12-26T05:41:59.750Z,10.8
2016-12-26T05:43:05.773Z,10.8
2016-12-26T05:44:11.792Z,10.8
2016-12-26T05:45:17.808Z,10.8
2016-12-26T05:46:23.830Z,10.8
2016-12-26T05:47:29.856Z,10.8
2016-12-26T05:48:35.873Z,10.9
2016-12-26T05:49:41.896Z,10.8
2016-12-26T05:50:47.922Z,10.8
2016-12-26T05:51:53.950Z,10.8
2016-12-26T05:52:59.966Z,10.8
2016-12-26T05:54:05.984Z,10.7
2016-12-26T05:55:12.012Z,10.8
2016-12-26T05:56:18.041Z,10.8
2016-12-26T05:57:24.065Z,10.8
2016-12-26T05:58:29.343Z,10.8
2016-12-26T05:59:35.365Z,10.8
2016-12-26T06:00:41.391Z,10.8
2016-12-26T06:01:47.412Z,10.7
2016-12-26T06:02:53.437Z,10.8
2016-12-26T06:03:59.454Z,10.8
2016-12-26T06:05:05.473Z,10.7
2016-12-26T06:06:11.501Z,10.7
2016-12-26T06:07:17.524Z,10.8
2016-12-26T06:08:23.543Z,10.7
2016-12-26T06:09:29.561Z,10.7
2016-12-26T06:10:35.586Z,10.7
2016-12-26T06:11:41.608Z,10.7
2016-12-26T06:12:47.630Z,10.7
2016-12-26T06:13:53.657Z,10.7
2016-12-26T06:14:59.682Z,10.7
2016-12-26T06:16:05.705Z,10.7
2016-12-26T06:17:11.723Z,10.8
2016-12-26T06:18:17.744Z,10.7
2016-12-26T06:19:23.771Z,10.7
2016-12-26T06:20:29.792Z,10.7
2016-12-26T06:21:35.823Z,10.7
2016-12-26T06:22:41.838Z,10.7
2016-12-26T06:23:47.868Z,10.7
2016-12-26T06:24:53.894Z,10.7
2016-12-26T06:25:59.914Z,10.7
2016-12-26T06:27:05.935Z,10.7
2016-12-26T06:28:11.962Z,10.7
2016-12-26T06:29:17.984Z,10.7
2016-12-26T06:30:24.002Z,10.7
2016-12-26T06:31:30.033Z,10.7
2016-12-26T06:32:36.058Z,10.7
2016-12-26T06:33:42.083Z,10.6
2016-12-26T06:34:48.098Z,10.6
2016-12-26T06:35:54.132Z,10.7
2016-12-26T06:36:59.406Z,10.6
2016-12-26T06:38:05.426Z,10.6
2016-12-26T06:39:11.443Z,10.7
2016-12-26T06:40:17.472Z,10.7
2016-12-26T06:41:23.492Z,10.7
2016-12-26T06:42:29.512Z,10.7
2016-12-26T06:43:35.537Z,10.7
2016-12-26T06:44:41.567Z,10.7
2016-12-26T06:45:47.594Z,10.7
2016-12-26T06:46:52.509Z,10.7
2016-12-26T06:47:58.538Z,10.8
2016-12-26T06:49:04.560Z,10.7
2016-12-26T06:50:10.578Z,10.7
2016-12-26T06:51:16.591Z,10.8
2016-12-26T06:52:22.619Z,10.8
2016-12-26T06:53:28.643Z,10.8
2016-12-26T06:54:34.656Z,10.7
2016-12-26T06:55:40.676Z,10.7
2016-12-26T06:56:46.704Z,10.7
2016-12-26T06:57:52.726Z,10.7
2016-12-26T06:58:58.739Z,10.7
2016-12-26T07:00:04.768Z,10.7
2016-12-26T07:01:10.791Z,10.7
2016-12-26T07:02:16.819Z,10.8
2016-12-26T07:03:22.833Z,10.8
2016-12-26T07:04:28.862Z,10.8
2016-12-26T07:05:34.883Z,10.7
2016-12-26T07:06:40.908Z,10.7
2016-12-26T07:07:46.933Z,10.7
2016-12-26T07:08:52.956Z,10.8
2016-12-26T07:09:58.977Z,10.8
2016-12-26T07:11:05.006Z,10.7
2016-12-26T07:12:11.025Z,10.7
2016-12-26T07:13:17.047Z,10.7
2016-12-26T07:14:23.068Z,10.7
2016-12-26T07:15:29.091Z,10.7
2016-12-26T07:16:35.109Z,10.7
2016-12-26T07:17:40.391Z,10.8
2016-12-26T07:18:46.419Z,10.9
2016-12-26T07:19:52.441Z,10.9
2016-12-26T07:20:58.462Z,10.9
2016-12-26T07:22:04.485Z,10.9
2016-12-26T07:23:10.502Z,10.8
2016-12-26T07:24:16.524Z,10.8
2016-12-26T07:25:22.545Z,10.8
2016-12-26T07:26:28.565Z,10.8
2016-12-26T07:27:34.590Z,10.9
2016-12-26T07:28:40.611Z,11
2016-12-26T07:29:46.633Z,10.9
2016-12-26T07:30:52.657Z,10.8
2016-12-26T07:31:58.684Z,10.8
2016-12-26T07:33:04.701Z,10.8
2016-12-26T07:34:10.725Z,10.9
2016-12-26T07:35:16.750Z,10.9
2016-12-26T07:36:22.768Z,10.9
2016-12-26T07:37:28.790Z,10.9
2016-12-26T07:38:34.819Z,11
2016-12-26T07:39:40.844Z,11.1
2016-12-26T07:40:46.864Z,11
2016-12-26T07:41:52.889Z,11
2016-12-26T07:42:58.916Z,10.9
2016-12-26T07:44:04.943Z,10.9
2016-12-26T07:45:10.966Z,10.8
2016-12-26T07:46:16.981Z,10.8
2016-12-26T07:47:23.001Z,10.8
2016-12-26T07:48:29.025Z,10.8
2016-12-26T07:49:35.045Z,10.8
2016-12-26T07:50:41.059Z,10.8
2016-12-26T07:51:47.081Z,10.8
2016-12-26T07:52:53.106Z,10.7
2016-12-26T07:53:59.126Z,10.7
2016-12-26T07:55:05.145Z,10.6
2016-12-26T07:56:11.169Z,10.6
2016-12-26T07:57:17.194Z,10.7
2016-12-26T07:58:23.205Z,10.7
2016-12-26T07:59:29.239Z,10.7
2016-12-26T08:00:35.259Z,10.7
2016-12-26T08:01:41.281Z,10.6
2016-12-26T08:02:47.298Z,10.7
2016-12-26T08:03:53.322Z,10.7
2016-12-26T08:04:59.345Z,10.7
2016-12-26T08:06:05.363Z,10.7
2016-12-26T08:07:11.378Z,10.7
2016-12-26T08:08:17.405Z,10.7
2016-12-26T08:09:23.429Z,10.7
2016-12-26T08:10:29.453Z,10.7
2016-12-26T08:11:35.471Z,10.7
2016-12-26T08:12:41.497Z,10.7
2016-12-26T08:13:47.525Z,10.8
2016-12-26T08:14:53.539Z,10.7
2016-12-26T08:15:59.568Z,10.7
2016-12-26T08:17:05.595Z,10.8
2016-12-26T08:18:11.627Z,10.7
2016-12-26T08:19:17.641Z,10.8
2016-12-26T08:20:23.666Z,10.8
2016-12-26T08:21:29.692Z,10.8
2016-12-26T08:22:35.708Z,10.8
2016-12-26T08:23:41.731Z,10.9
2016-12-26T08:24:47.759Z,10.8
2016-12-26T08:25:53.793Z,10.8
2016-12-26T08:26:59.798Z,10.9
2016-12-26T08:28:05.830Z,10.9
2016-12-26T08:29:11.855Z,10.9
2016-12-26T08:30:17.879Z,10.8
2016-12-26T08:31:23.899Z,10.8
2016-12-26T08:32:29.927Z,10.8
2016-12-26T08:33:35.943Z,10.8
2016-12-26T08:34:41.965Z,10.8
2016-12-26T08:35:47.990Z,10.8
2016-12-26T08:36:54.016Z,10.8
2016-12-26T08:38:00.042Z,10.8
2016-12-26T08:39:06.065Z,10.7
2016-12-26T08:40:12.085Z,10.7
2016-12-26T08:41:18.107Z,10.8
2016-12-26T08:42:24.199Z,10.7
2016-12-26T08:43:30.199Z,10.7
2016-12-26T08:44:36.237Z,10.8
2016-12-26T08:45:42.289Z,10.8
2016-12-26T08:46:48.350Z,10.7
2016-12-26T08:47:54.302Z,10.7
2016-12-26T08:49:00.323Z,10.5
2016-12-26T08:50:06.347Z,10.5
2016-12-26T08:51:12.366Z,10.6
2016-12-26T08:52:18.450Z,10.5
2016-12-26T08:53:24.467Z,10.3
2016-12-26T08:54:30.493Z,10.1
2016-12-26T08:55:36.518Z,10.2
2016-12-26T08:56:42.547Z,10.1
2016-12-26T08:57:48.564Z,9.9
2016-12-26T08:58:54.592Z,10
2016-12-26T09:00:00.616Z,10
2016-12-26T09:01:06.633Z,10
2016-12-26T09:02:12.656Z,9.8
2016-12-26T09:03:18.679Z,9.8
2016-12-26T09:04:24.692Z,9.8
2016-12-26T09:05:30.813Z,9.7
2016-12-26T09:06:36.938Z,9.7
2016-12-26T09:07:42.967Z,9.7
2016-12-26T09:08:49.017Z,9.7
2016-12-26T09:09:55.017Z,9.7
2016-12-26T09:11:01.049Z,9.7
2016-12-26T09:12:07.067Z,9.6
2016-12-26T09:13:13.103Z,9.6
2016-12-26T09:14:19.106Z,9.7
2016-12-26T09:15:25.124Z,9.7
2016-12-26T09:16:31.149Z,9.7
2016-12-26T09:17:37.170Z,9.6
2016-12-26T09:18:43.193Z,9.6
2016-12-26T09:19:49.214Z,9.5
2016-12-26T09:20:55.235Z,9.4
2016-12-26T09:22:01.259Z,9.4
2016-12-26T09:23:07.287Z,9.5
2016-12-26T09:24:13.302Z,9.5
2016-12-26T09:25:19.320Z,9.6
2016-12-26T09:26:25.334Z,9.5
2016-12-26T09:27:31.369Z,9.4
2016-12-26T09:28:37.389Z,9.5
2016-12-26T09:29:43.414Z,9.4
2016-12-26T09:30:49.422Z,9.3
2016-12-26T09:31:55.448Z,9.2
2016-12-26T09:33:01.465Z,9
2016-12-26T09:34:07.484Z,9.1
2016-12-26T09:35:13.496Z,8.9
2016-12-26T09:36:19.528Z,9
2016-12-26T09:37:25.543Z,9.1
2016-12-26T09:38:31.593Z,9.1
2016-12-26T09:39:37.584Z,9.1
2016-12-26T09:40:43.616Z,9.1
2016-12-26T09:41:49.635Z,9
2016-12-26T09:42:55.657Z,9.1
2016-12-26T09:44:01.688Z,9
2016-12-26T09:45:07.706Z,8.9
2016-12-26T09:46:13.723Z,8.7
2016-12-26T09:47:19.778Z,8.8
2016-12-26T09:48:25.769Z,8.9
2016-12-26T09:49:31.801Z,9
2016-12-26T09:50:37.817Z,9
2016-12-26T09:51:43.834Z,9
2016-12-26T09:52:49.860Z,8.9
2016-12-26T09:53:55.886Z,8.8
2016-12-26T09:55:01.898Z,8.9
2016-12-26T09:56:07.928Z,8.9
2016-12-26T09:57:13.949Z,8.8
2016-12-26T09:58:19.974Z,8.8
2016-12-26T09:59:25.987Z,8.8
2016-12-26T10:00:32.011Z,8.9
2016-12-26T10:01:38.035Z,8.8
2016-12-26T10:02:44.056Z,8.8
2016-12-26T10:03:50.075Z,8.9
2016-12-26T10:04:56.097Z,8.7
2016-12-26T10:06:02.114Z,8.8
2016-12-26T10:07:08.131Z,8.6
2016-12-26T10:08:14.154Z,8.6
2016-12-26T10:09:20.179Z,8.8
2016-12-26T10:10:26.201Z,8.7
2016-12-26T10:11:32.215Z,8.6
2016-12-26T10:12:38.231Z,8.6
2016-12-26T10:13:44.256Z,8.8
2016-12-26T10:14:50.283Z,8.8
2016-12-26T10:15:56.306Z,8.6
2016-12-26T10:17:02.327Z,8.6
2016-12-26T10:18:08.351Z,8.6
2016-12-26T10:19:14.368Z,8.6
2016-12-26T10:20:20.386Z,8.6
2016-12-26T10:21:26.401Z,8.5
2016-12-26T10:22:32.427Z,8.5
2016-12-26T10:23:38.455Z,8.5
2016-12-26T10:24:44.468Z,8.6
2016-12-26T10:25:50.485Z,8.5
2016-12-26T10:26:56.511Z,8.4
2016-12-26T10:28:02.528Z,8.6
2016-12-26T10:29:08.552Z,8.7
2016-12-26T10:30:14.569Z,8.6
2016-12-26T10:31:20.593Z,8.6
2016-12-26T10:32:26.615Z,8.8
2016-12-26T10:33:32.640Z,8.6
2016-12-26T10:34:38.665Z,8.5
2016-12-26T10:35:44.687Z,8.6
2016-12-26T10:36:50.712Z,8.5
2016-12-26T10:37:56.728Z,8.6
2016-12-26T10:39:02.753Z,8.6
2016-12-26T10:40:08.773Z,8.8
2016-12-26T10:41:14.796Z,8.8
2016-12-26T10:42:20.807Z,8.8
2016-12-26T10:43:26.833Z,8.9
2016-12-26T10:44:32.848Z,8.9
2016-12-26T10:45:38.874Z,8.7
2016-12-26T10:46:44.890Z,8.8
2016-12-26T10:47:50.916Z,8.7
2016-12-26T10:48:56.938Z,8.7
2016-12-26T10:50:02.959Z,8.7
2016-12-26T10:51:08.977Z,8.7
2016-12-26T10:52:15.002Z,8.8
2016-12-26T10:53:21.031Z,8.9
2016-12-26T10:54:27.050Z,8.9
2016-12-26T10:55:33.074Z,8.8
2016-12-26T10:56:39.098Z,8.8
2016-12-26T10:57:45.122Z,8.9
2016-12-26T10:58:51.133Z,8.7
2016-12-26T10:59:57.165Z,8.9
2016-12-26T11:01:03.183Z,8.8
2016-12-26T11:02:09.199Z,8.7
2016-12-26T11:03:15.223Z,8.8
2016-12-26T11:04:21.257Z,8.9
2016-12-26T11:05:27.274Z,9.2
2016-12-26T11:06:33.296Z,8.9
2016-12-26T11:07:39.313Z,8.9
2016-12-26T11:08:45.335Z,8.7
2016-12-26T11:09:51.353Z,8.6
2016-12-26T11:10:57.376Z,8.7
2016-12-26T11:12:03.396Z,8.8
2016-12-26T11:13:09.420Z,9
2016-12-26T11:14:15.443Z,8.9
2016-12-26T11:15:20.366Z,8.8
2016-12-26T11:16:26.383Z,8.9
2016-12-26T11:17:32.409Z,9
2016-12-26T11:18:38.431Z,9
2016-12-26T11:19:44.454Z,8.9
2016-12-26T11:20:50.465Z,9.1
2016-12-26T11:21:56.486Z,9
2016-12-26T11:23:02.509Z,9.1
2016-12-26T11:24:08.533Z,9.2
2016-12-26T11:25:14.551Z,9
2016-12-26T11:26:20.577Z,9.1
2016-12-26T11:27:26.599Z,9.1
2016-12-26T11:28:32.616Z,9
2016-12-26T11:29:38.636Z,9.2
2016-12-26T11:30:44.660Z,9.3
2016-12-26T11:31:50.686Z,9.4
2016-12-26T11:32:56.709Z,9.4
2016-12-26T11:34:02.730Z,9.5
2016-12-26T11:35:08.753Z,9.3
2016-12-26T11:36:14.775Z,9.5
2016-12-26T11:37:20.788Z,9.4
2016-12-26T11:38:26.808Z,9.5
2016-12-26T11:39:32.830Z,9.6
2016-12-26T11:40:38.847Z,9.5
2016-12-26T11:41:44.871Z,9.3
2016-12-26T11:42:50.893Z,9.5
2016-12-26T11:43:56.913Z,9.7
2016-12-26T11:45:02.933Z,9.9
2016-12-26T11:46:08.955Z,9.6
2016-12-26T11:47:14.976Z,9.7
2016-12-26T11:48:21.000Z,9.7
2016-12-26T11:49:27.022Z,9.5
2016-12-26T11:50:33.052Z,9.3
2016-12-26T11:51:39.080Z,9.4
2016-12-26T11:52:45.117Z,9.5
2016-12-26T11:53:51.113Z,9.3
2016-12-26T11:54:57.134Z,9.4
2016-12-26T11:56:03.157Z,9.5
2016-12-26T11:57:09.181Z,9.6
2016-12-26T11:58:15.191Z,9.5
2016-12-26T11:59:21.219Z,9.6
2016-12-26T12:00:27.243Z,9.7
2016-12-26T12:01:33.265Z,9.3
2016-12-26T12:02:39.278Z,9.4
2016-12-26T12:03:45.306Z,9.4
2016-12-26T12:04:51.325Z,9.3
2016-12-26T12:05:57.343Z,9.2
2016-12-26T12:07:03.353Z,9.2
2016-12-26T12:08:09.380Z,9.2
2016-12-26T12:09:15.406Z,9.1
2016-12-26T12:10:21.421Z,9.1
2016-12-26T12:11:27.442Z,9
2016-12-26T12:12:33.464Z,9.1
2016-12-26T12:13:39.485Z,8.9
2016-12-26T12:14:45.504Z,9
2016-12-26T12:15:51.527Z,9.1
2016-12-26T12:16:57.549Z,9.1
2016-12-26T12:18:03.572Z,9
2016-12-26T12:19:09.586Z,9
2016-12-26T12:20:15.608Z,9
2016-12-26T12:21:21.632Z,8.9
2016-12-26T12:22:27.643Z,9
2016-12-26T12:23:33.672Z,9
2016-12-26T12:24:39.694Z,9
2016-12-26T12:25:45.718Z,9.1
2016-12-26T12:26:51.730Z,9
2016-12-26T12:27:57.756Z,9
2016-12-26T12:29:03.771Z,9
2016-12-26T12:30:09.788Z,8.9
2016-12-26T12:31:15.799Z,8.9
2016-12-26T12:32:20.729Z,9
2016-12-26T12:33:26.750Z,9.1
2016-12-26T12:34:32.773Z,9
2016-12-26T12:35:38.788Z,8.9
2016-12-26T12:36:44.807Z,8.9
2016-12-26T12:37:50.832Z,8.8
2016-12-26T12:38:56.855Z,8.8
2016-12-26T12:40:02.881Z,8.7
2016-12-26T12:41:08.892Z,8.7
2016-12-26T12:42:14.911Z,8.6
2016-12-26T12:43:20.928Z,8.4
2016-12-26T12:44:26.953Z,8.3
2016-12-26T12:45:32.976Z,7.8
2016-12-26T12:46:38.996Z,7.6
2016-12-26T12:47:45.017Z,7.1
2016-12-26T12:48:51.034Z,6.9
2016-12-26T12:49:57.059Z,6.9
2016-12-26T12:51:03.079Z,6.9
2016-12-26T12:52:09.099Z,6.9
2016-12-26T12:53:15.129Z,6.8
2016-12-26T12:54:21.151Z,6.9
2016-12-26T12:55:27.170Z,6.7
2016-12-26T12:56:33.189Z,6.7
2016-12-26T12:57:39.213Z,6.7
2016-12-26T12:58:45.234Z,6.8
2016-12-26T12:59:51.254Z,6.9
2016-12-26T13:00:57.277Z,6.9
2016-12-26T13:02:03.299Z,6.9
2016-12-26T13:03:09.321Z,7
2016-12-26T13:04:15.350Z,6.8
2016-12-26T13:05:21.361Z,6.9
2016-12-26T13:06:27.379Z,6.9
2016-12-26T13:07:33.405Z,7.1
2016-12-26T13:08:39.420Z,7
2016-12-26T13:09:45.448Z,7
2016-12-26T13:10:51.472Z,7
2016-12-26T13:11:57.498Z,7.2
2016-12-26T13:13:03.517Z,7.2
2016-12-26T13:14:09.537Z,7.1
2016-12-26T13:15:15.554Z,7
2016-12-26T13:16:21.570Z,7
2016-12-26T13:17:27.587Z,7
2016-12-26T13:18:33.608Z,6.9
2016-12-26T13:19:39.631Z,6.9
2016-12-26T13:20:45.648Z,6.9
2016-12-26T13:21:51.660Z,6.8
2016-12-26T13:22:57.679Z,6.8
2016-12-26T13:24:03.695Z,6.9
2016-12-26T13:25:09.719Z,6.9
2016-12-26T13:26:15.738Z,6.9
2016-12-26T13:27:21.758Z,6.9
2016-12-26T13:28:27.782Z,6.9
2016-12-26T13:29:33.801Z,6.9
2016-12-26T13:30:39.827Z,6.9
2016-12-26T13:31:45.855Z,6.9
2016-12-26T13:32:51.875Z,6.9
2016-12-26T13:33:57.896Z,6.9
2016-12-26T13:35:03.912Z,7
2016-12-26T13:36:09.939Z,7
2016-12-26T13:37:15.959Z,7
2016-12-26T13:38:21.977Z,7
2016-12-26T13:39:28.006Z,7
2016-12-26T13:40:34.029Z,7
2016-12-26T13:41:40.049Z,7
2016-12-26T13:42:46.065Z,7
2016-12-26T13:43:52.091Z,6.9
2016-12-26T13:44:58.114Z,6.9
2016-12-26T13:46:04.135Z,6.9
2016-12-26T13:47:10.151Z,6.9
2016-12-26T13:48:16.175Z,6.9
2016-12-26T13:49:22.198Z,6.9
2016-12-26T13:50:28.209Z,6.9
2016-12-26T13:51:34.238Z,6.9
2016-12-26T13:52:40.261Z,6.9
2016-12-26T13:53:46.287Z,6.8
2016-12-26T13:54:52.298Z,6.8
2016-12-26T13:55:58.327Z,6.9
2016-12-26T13:57:04.342Z,6.9
2016-12-26T13:58:10.364Z,6.9
2016-12-26T13:59:16.384Z,6.9
2016-12-26T14:00:22.406Z,6.9
2016-12-26T14:01:28.427Z,6.9
2016-12-26T14:02:34.449Z,7
2016-12-26T14:03:40.473Z,7
2016-12-26T14:04:46.496Z,6.9
2016-12-26T14:05:51.413Z,7
2016-12-26T14:06:57.446Z,6.9
2016-12-26T14:08:03.452Z,7
2016-12-26T14:09:09.477Z,7
2016-12-26T14:10:15.498Z,7
2016-12-26T14:11:21.520Z,7
2016-12-26T14:12:27.542Z,7
2016-12-26T14:13:33.561Z,7
2016-12-26T14:14:39.581Z,7
2016-12-26T14:15:45.597Z,7
2016-12-26T14:16:51.618Z,7
2016-12-26T14:17:57.641Z,7.1
2016-12-26T14:19:03.662Z,7
2016-12-26T14:20:09.681Z,7
2016-12-26T14:21:15.707Z,7
2016-12-26T14:22:21.725Z,7
2016-12-26T14:23:27.741Z,6.9
2016-12-26T14:24:33.764Z,6.9
2016-12-26T14:25:39.791Z,6.9
2016-12-26T14:26:45.812Z,6.9
2016-12-26T14:27:51.832Z,7
2016-12-26T14:28:57.854Z,7.2
2016-12-26T14:30:03.880Z,7.2
2016-12-26T14:31:09.906Z,7.3
2016-12-26T14:32:15.929Z,7.3
2016-12-26T14:33:21.973Z,7.2
2016-12-26T14:34:27.967Z,7.3
2016-12-26T14:35:33.990Z,7.3
2016-12-26T14:36:40.008Z,7.5
2016-12-26T14:37:46.059Z,7.4
2016-12-26T14:38:52.062Z,7.4
2016-12-26T14:39:58.089Z,7.5
2016-12-26T14:41:04.104Z,7.6
2016-12-26T14:42:10.120Z,7.6
2016-12-26T14:43:16.141Z,7.4
2016-12-26T14:44:22.166Z,7.4
2016-12-26T14:45:28.195Z,7.4
2016-12-26T14:46:34.212Z,7.4
2016-12-26T14:47:40.227Z,7.4
2016-12-26T14:48:46.251Z,7.4
2016-12-26T14:49:52.277Z,7.4
2016-12-26T14:50:58.314Z,7.3
2016-12-26T14:52:04.388Z,7.4
2016-12-26T14:53:10.408Z,7.3
2016-12-26T14:54:16.419Z,7.5
2016-12-26T14:55:22.457Z,7.2
2016-12-26T14:56:28.564Z,7.1